• Join FlightAware (Why Join?)
  • Login
  • US Flag 
02:55AM EST


 

Airport Tracker/Info


-or-


 

Live Flight TrackerFlight Track Log ✈ DAL2022 ✈ 30-Apr-2013 ✈ KATL - KROA

Flight Track Log - Related Links

Times and Time Zones

All times are in EDT time to prevent confusion due to time zone crossing. See the DAL2022 flight status page for this flight to view local times or setup timezone preferences in your user account.

Time Position Orientation Groundspeed Altitude Reporting Facility
EDT Latitude Longitude Course Direction KTS MPH feet Rate Location/Type
08:59PM 33.6333 -84.4000 53° Northeast 156 180 3,100  Level Atlanta TRACON
09:00PM 33.6333 -84.3333 90° East 217 250 5,200 1,500 Climbing Atlanta TRACON
09:01PM 33.6333 -84.2500 90° East 266 306 6,000 1,860 Climbing Atlanta TRACON
09:02PM 33.8833 -84.1483 54° Northeast  Level Estimated
09:02PM 33.6333 -84.1500 90° East 278 320 9,000  Level Atlanta TRACON
09:03PM 33.8772 -84.0124 93° East  Level FlightAware Approximate
09:03PM 33.6628 -84.0589 69° East 294 338 12,800  Level Atlanta Center
09:04PM 33.8710 -83.8766 93° East  Level FlightAware Approximate
09:04PM 33.7275 -83.9814 45° Northeast 295 339 14,000  Level Atlanta Center
09:05PM 33.9557 -83.7865 53° Northeast  Level Estimated
09:05PM 33.7942 -83.8939 47° Northeast 330 380 16,000  Level Atlanta Center
09:06PM 33.8650 -83.8036 47° Northeast 353 406 19,000 2,400 Climbing Atlanta Center
09:07PM 33.9358 -83.7083 48° Northeast 367 422 20,800 1,980 Climbing Atlanta Center
09:08PM 34.0083 -83.5953 52° Northeast 401 461 23,000 2,220 Climbing Atlanta Center
09:09PM 34.0808 -83.4744 54° Northeast 427 491 25,300 1,980 Climbing Atlanta Center
09:10PM 34.1556 -83.3586 52° Northeast 434 499 27,000 840 Climbing Atlanta Center
09:11PM 34.2342 -83.2347 52° Northeast 448 516 27,000  Level Atlanta Center
09:12PM 34.3083 -83.1133 53° Northeast 457 526 27,000  Level Atlanta Center
09:13PM 34.3886 -82.9867 52° Northeast 457 526 27,000  Level Atlanta Center
09:14PM 34.4567 -82.8775 53° Northeast 457 526 27,000  Level Atlanta Center
09:15PM 34.5325 -82.7528 54° Northeast 457 526 27,000  Level Atlanta Center
09:16PM 34.6064 -82.6281 54° Northeast 457 526 27,000  Level Atlanta Center
09:17PM 34.6903 -82.4953 52° Northeast 457 526 27,000  Level Atlanta Center
09:18PM 34.7639 -82.3700 54° Northeast 457 526 27,000  Level Atlanta Center
09:19PM 34.8414 -82.2544 51° Northeast 451 519 27,000  Level Atlanta Center
09:20PM 34.9006 -82.1519 55° Northeast 451 519 27,000  Level Atlanta Center
09:21PM 34.9858 -82.0158 53° Northeast 458 527 27,000  Level Atlanta Center
09:22PM 35.0739 -81.9094 45° Northeast 446 513 27,000  Level Atlanta Center
09:23PM 35.1875 -81.8456 25° Northeast 438 504 27,000  Level Atlanta Center
09:24PM 35.3092 -81.7711 27° Northeast 433 498 27,000  Level Atlanta Center
09:25PM 35.4228 -81.7069 25° Northeast 438 504 27,000  Level Atlanta Center
09:26PM 35.5342 -81.6425 25° Northeast 438 504 27,000  Level Atlanta Center
09:27PM 35.6475 -81.5753 26° Northeast 443 510 27,000  Level Atlanta Center
09:28PM 35.7611 -81.5103 25° Northeast 443 510 27,000  Level Atlanta Center
09:29PM 35.8619 -81.4483 26° Northeast 443 510 27,000  Level Atlanta Center
09:30PM 35.9733 -81.3831 25° Northeast 438 504 27,000  Level Atlanta Center
09:31PM 36.0864 -81.3153 26° Northeast 438 504 27,000 -360 Level Atlanta Center
09:32PM 36.1956 -81.2497 26° Northeast 438 504 26,300 -900 Descending Atlanta Center
09:33PM 36.3022 -81.1792 28° Northeast 427 491 25,300 -1,020 Descending Atlanta Center
09:34PM 36.4000 -81.0725 41° Northeast 422 486 24,300 -1,020 Descending Atlanta Center
09:35PM 36.4917 -80.9839 38° Northeast 417 480 23,300 -1,860 Descending Atlanta Center
09:36PM 36.5792 -80.8978 38° Northeast 412 474 20,600 -2,700 Descending Atlanta Center
09:38PM 36.6766 -80.9490 28° Northeast  Level FlightAware Approximate
09:45PM 37.1926 -80.3389 67° East  Level FlightAware Approximate
09:46PM 37.2415 -80.2171 58° Northeast  Level FlightAware Approximate
09:47PM 37.2708 -80.0876 67° East  Level FlightAware Approximate
09:48PM 37.3167 -79.9667 58° Northeast  Level FlightAware Approximate
09:49PM 37.3255 -79.9754 58° Northeast  Level Estimated
09:50PM 37.3255 -79.9754 58° Northeast  Level Estimated
09:51PM 37.3255 -79.9754 58° Northeast  Level Estimated